Terminal Aerodrome Forecast
Issued by NWS Hastings, NE

Current Version | Previous Version | Text Only | Print | Product List | Glossary On
Versions: 1 2 3 4 5 6 7 8 9 10 11 12 13 14 15 16
000
FTUS45 KGID 201128
TAFEAR
TAF
KEAR 201128Z 2012/2112 19009KT 4SM BR SCT008 BKN080 BKN140
     FM201500 25010KT P6SM SCT015 BKN140
     FM201600 33017G25KT P6SM FEW035
     FM202300 31005KT P6SM SKC
     FM210500 23004KT P6SM SKC
      AMD LTD TO CLD VIS AND WIND=

USA.gov is the U.S. government's official web portal to all federal, state and local government web resources and services.